Terminal Aerodrome Forecast
Issued by NWS Atlanta, GA

Home | Current Version | Previous Version | Text Only | Print | Product List | Glossary On
Versions: 1 2 3 4 5 6 7 8 9 10 11 12 13 14 15 16 17 18 19
894
FTUS42 KFFC 181135
TAFMCN
TAF
KMCN 181135Z 1812/1912 25007KT P6SM OVC006
      TEMPO 1812/1815 4SM BR OVC003
     FM181500 28009KT P6SM SCT007 BKN015 BKN035
     FM181900 29010KT P6SM SCT015 BKN040
     FM190000 28005KT P6SM SCT030 BKN250
     FM191100 VRB02KT P6SM SCT015 SCT120=

USA.gov is the U.S. government's official web portal to all federal, state and local government web resources and services.